createdAt,value
2023-02-11T00:02:01.588Z,44.00
2023-02-11T00:04:37.137Z,44.40
2023-02-11T00:07:11.919Z,44.30
2023-02-11T00:09:45.183Z,46.00
2023-02-11T00:12:19.732Z,44.60
2023-02-11T00:14:52.414Z,44.30
2023-02-11T00:17:24.915Z,44.70
2023-02-11T00:19:57.489Z,43.00
2023-02-11T00:22:30.022Z,42.50
2023-02-11T00:25:02.579Z,43.80
2023-02-11T00:27:35.152Z,41.30
2023-02-11T00:30:09.509Z,44.80
2023-02-11T00:32:45.357Z,47.90
2023-02-11T00:35:18.015Z,40.60
2023-02-11T00:37:50.494Z,45.60
2023-02-11T00:40:23.675Z,46.20
2023-02-11T00:42:56.260Z,46.00
2023-02-11T00:45:36.790Z,47.10
2023-02-11T00:48:12.429Z,43.80
2023-02-11T00:50:45.272Z,46.10
2023-02-11T00:53:17.836Z,45.80
2023-02-11T00:55:51.029Z,47.80
2023-02-11T00:58:23.862Z,42.30
2023-02-11T01:00:57.854Z,45.90
2023-02-11T01:03:35.148Z,44.90
2023-02-11T01:06:09.245Z,50.20
2023-02-11T01:08:43.495Z,43.80
2023-02-11T01:11:18.364Z,44.20
2023-02-11T01:13:52.793Z,46.20
2023-02-11T01:16:25.391Z,46.20
2023-02-11T01:18:58.962Z,47.00
2023-02-11T01:21:31.604Z,45.10
2023-02-11T01:24:07.459Z,45.90
2023-02-11T01:26:41.806Z,42.10
2023-02-11T01:29:15.086Z,40.90
2023-02-11T01:31:47.601Z,46.60
2023-02-11T01:34:20.189Z,44.90
2023-02-11T01:36:52.709Z,47.60
2023-02-11T01:39:25.156Z,46.70
2023-02-11T01:41:59.016Z,46.40
2023-02-11T01:44:35.343Z,42.90
2023-02-11T01:47:08.285Z,44.80
2023-02-11T01:49:44.042Z,45.70
2023-02-11T01:52:19.768Z,45.20
2023-02-11T01:55:12.810Z,49.60
2023-02-11T01:57:50.062Z,47.30
2023-02-11T02:00:26.404Z,51.10
2023-02-11T02:03:03.931Z,47.70
2023-02-11T02:05:41.631Z,40.50
2023-02-11T02:08:20.633Z,45.40
2023-02-11T02:11:00.593Z,45.80
2023-02-11T02:13:36.061Z,45.30
2023-02-11T02:16:13.800Z,45.50
2023-02-11T02:18:57.534Z,45.40
2023-02-11T02:22:02.689Z,44.10
2023-02-11T02:24:50.771Z,39.80
2023-02-11T02:27:47.334Z,45.30
2023-02-11T02:30:56.553Z,43.50
2023-02-11T02:33:54.462Z,44.70
2023-02-11T02:36:35.876Z,43.50
2023-02-11T02:39:13.363Z,43.60
2023-02-11T02:41:47.512Z,37.60
2023-02-11T02:44:21.321Z,46.50
2023-02-11T02:46:57.033Z,46.10
2023-02-11T02:49:29.511Z,44.20
2023-02-11T02:52:13.704Z,48.70
2023-02-11T02:55:08.803Z,46.10
2023-02-11T02:58:00.983Z,45.90
2023-02-11T03:00:44.362Z,43.00
2023-02-11T03:03:35.787Z,44.40
2023-02-11T03:06:14.356Z,44.60
2023-02-11T03:08:58.358Z,45.80
2023-02-11T03:11:32.042Z,43.20
2023-02-11T03:14:09.571Z,44.30
2023-02-11T03:16:44.786Z,46.00
2023-02-11T03:19:21.647Z,45.00
2023-02-11T03:21:54.761Z,44.70
2023-02-11T03:24:32.324Z,46.30
2023-02-11T03:27:12.270Z,42.00
2023-02-11T03:29:51.824Z,44.60
2023-02-11T03:32:29.246Z,44.40
2023-02-11T03:35:08.788Z,41.00
2023-02-11T03:37:46.665Z,45.30
2023-02-11T03:40:23.582Z,43.90
2023-02-11T03:42:59.805Z,41.90
2023-02-11T03:45:34.151Z,43.80
2023-02-11T03:48:13.109Z,41.40
2023-02-11T03:50:49.701Z,43.60
2023-02-11T03:53:24.130Z,46.40
2023-02-11T03:55:59.992Z,42.50
2023-02-11T03:58:33.363Z,41.50
2023-02-11T04:01:09.883Z,38.30
2023-02-11T04:03:42.604Z,41.00
2023-02-11T04:06:15.250Z,40.60
2023-02-11T04:08:50.309Z,38.70
2023-02-11T04:11:22.735Z,37.40
2023-02-11T04:13:55.177Z,38.20
2023-02-11T04:16:27.754Z,41.80
2023-02-11T04:19:01.766Z,40.80
2023-02-11T04:21:34.702Z,41.90
2023-02-11T04:24:07.431Z,42.30
2023-02-11T04:26:39.880Z,42.60
2023-02-11T04:29:12.320Z,43.50
2023-02-11T04:31:44.835Z,42.00
2023-02-11T04:34:17.505Z,41.40
2023-02-11T04:36:50.147Z,42.30
2023-02-11T04:39:22.788Z,45.10
2023-02-11T04:41:55.309Z,39.70
2023-02-11T04:44:28.332Z,41.50
2023-02-11T04:47:00.849Z,40.50
2023-02-11T04:49:33.344Z,39.90
2023-02-11T04:52:06.600Z,40.30
2023-02-11T04:54:39.450Z,37.80
2023-02-11T04:57:11.922Z,42.30
2023-02-11T04:59:44.553Z,40.50
2023-02-11T05:02:17.162Z,41.40
2023-02-11T05:04:49.602Z,38.30
2023-02-11T05:07:22.090Z,37.90
2023-02-11T05:09:54.555Z,40.70
2023-02-11T05:12:27.116Z,38.70
2023-02-11T05:14:59.764Z,40.10
2023-02-11T05:17:32.326Z,39.00
2023-02-11T05:20:08.593Z,40.10
2023-02-11T05:22:41.115Z,37.10
2023-02-11T05:25:13.884Z,35.50
2023-02-11T05:27:46.377Z,41.00
2023-02-11T05:30:19.057Z,42.70
2023-02-11T05:32:51.978Z,37.00
2023-02-11T05:35:24.922Z,39.30
2023-02-11T05:37:57.462Z,39.60
2023-02-11T05:40:30.438Z,41.30
2023-02-11T05:43:02.843Z,29.80
2023-02-11T05:45:35.415Z,39.50
2023-02-11T05:48:08.700Z,39.10
2023-02-11T05:50:41.680Z,37.00
2023-02-11T05:53:14.947Z,38.50
2023-02-11T05:55:48.240Z,38.60
2023-02-11T05:58:20.919Z,42.10
2023-02-11T06:00:53.360Z,34.30
2023-02-11T06:03:26.079Z,40.70
2023-02-11T06:05:58.719Z,39.00
2023-02-11T06:08:31.463Z,37.00
2023-02-11T06:11:04.000Z,37.00
2023-02-11T06:13:36.573Z,37.30
2023-02-11T06:16:10.163Z,38.50
2023-02-11T06:18:43.187Z,38.70
2023-02-11T06:21:16.121Z,34.50
2023-02-11T06:23:49.327Z,37.80
2023-02-11T06:26:26.030Z,36.60
2023-02-11T06:29:00.812Z,37.60
2023-02-11T06:31:33.490Z,40.50
2023-02-11T06:34:06.292Z,39.70
2023-02-11T06:36:40.081Z,39.80
2023-02-11T06:39:13.766Z,35.60
2023-02-11T06:41:46.283Z,38.60
2023-02-11T06:44:18.804Z,37.40
2023-02-11T06:46:51.569Z,35.00
2023-02-11T06:49:24.179Z,36.00
2023-02-11T06:51:56.753Z,35.60
2023-02-11T06:54:29.379Z,35.30
2023-02-11T06:57:05.893Z,38.40
2023-02-11T06:59:38.869Z,34.00
2023-02-11T07:02:12.078Z,35.00
2023-02-11T07:04:44.690Z,34.50
2023-02-11T07:07:17.201Z,36.50
2023-02-11T07:09:49.797Z,36.80
2023-02-11T07:12:22.416Z,33.90
2023-02-11T07:14:55.026Z,34.80
2023-02-11T07:17:27.619Z,38.90
2023-02-11T07:20:00.321Z,34.80
2023-02-11T07:22:33.141Z,32.70
2023-02-11T07:25:06.178Z,36.60
2023-02-11T07:27:38.704Z,34.50
2023-02-11T07:30:14.115Z,35.70
2023-02-11T07:32:46.641Z,32.90
2023-02-11T07:35:19.457Z,36.30
2023-02-11T07:37:52.041Z,34.80
2023-02-11T07:40:24.707Z,37.70
2023-02-11T07:42:57.208Z,34.60
2023-02-11T07:45:30.043Z,36.70
2023-02-11T07:48:02.531Z,33.50
2023-02-11T07:50:35.090Z,34.50
2023-02-11T07:53:07.891Z,28.90
2023-02-11T07:55:40.731Z,33.20
2023-02-11T07:58:13.220Z,32.80
2023-02-11T08:00:46.223Z,31.50
2023-02-11T08:03:18.782Z,29.90
2023-02-11T08:05:51.925Z,30.40
2023-02-11T08:08:24.655Z,30.50
2023-02-11T08:10:57.255Z,29.00
2023-02-11T08:13:29.847Z,31.30
2023-02-11T08:16:05.697Z,31.70
2023-02-11T08:18:38.874Z,29.50
2023-02-11T08:21:12.288Z,39.10
2023-02-11T08:23:45.850Z,33.40
2023-02-11T08:26:24.565Z,33.30
2023-02-11T08:28:59.124Z,51.30
2023-02-11T08:31:34.842Z,39.40
2023-02-11T08:34:07.976Z,31.50
2023-02-11T08:36:43.515Z,30.50
2023-02-11T08:39:20.439Z,27.60
2023-02-11T08:41:56.919Z,29.60
2023-02-11T08:44:30.074Z,28.10
2023-02-11T08:47:02.574Z,28.80
2023-02-11T08:49:35.271Z,29.20
2023-02-11T08:52:07.937Z,30.00
2023-02-11T08:54:40.479Z,26.70
2023-02-11T08:57:13.397Z,24.90
2023-02-11T08:59:45.961Z,28.10
2023-02-11T09:02:19.255Z,27.70
2023-02-11T09:04:51.804Z,26.20
2023-02-11T09:07:24.409Z,33.00
2023-02-11T09:09:57.162Z,28.80
2023-02-11T09:12:29.599Z,28.20
2023-02-11T09:15:02.398Z,28.10
2023-02-11T09:17:34.909Z,25.90
2023-02-11T09:20:10.756Z,24.00
2023-02-11T09:22:43.369Z,25.90
2023-02-11T09:25:15.841Z,27.90
2023-02-11T09:27:48.625Z,26.30
2023-02-11T09:30:21.420Z,25.30
2023-02-11T09:32:54.072Z,27.00
2023-02-11T09:35:31.179Z,25.70
2023-02-11T09:38:03.667Z,24.90
2023-02-11T09:40:36.981Z,25.40
2023-02-11T09:43:13.249Z,25.80
2023-02-11T09:45:46.436Z,26.70
2023-02-11T09:48:23.065Z,25.80
2023-02-11T09:50:58.899Z,25.80
2023-02-11T09:53:34.085Z,24.60
2023-02-11T09:56:14.769Z,26.40
2023-02-11T09:58:48.398Z,27.40
2023-02-11T10:01:31.917Z,26.30
2023-02-11T10:04:11.344Z,24.90
2023-02-11T10:06:49.441Z,27.40
2023-02-11T10:09:35.890Z,26.70
2023-02-11T10:12:26.806Z,25.90
2023-02-11T10:15:23.504Z,23.50
2023-02-11T10:18:19.407Z,26.10
2023-02-11T10:21:03.300Z,29.30
2023-02-11T10:23:38.852Z,27.90
2023-02-11T10:26:17.292Z,29.40
2023-02-11T10:28:53.414Z,27.20
2023-02-11T10:31:35.533Z,29.00
2023-02-11T10:34:11.010Z,30.40
2023-02-11T10:36:52.619Z,29.70
2023-02-11T10:39:27.965Z,29.00
2023-02-11T10:42:06.688Z,29.00
2023-02-11T10:44:43.344Z,29.80
2023-02-11T10:47:21.945Z,27.70
2023-02-11T10:49:54.982Z,25.90
2023-02-11T10:52:30.716Z,29.00
2023-02-11T10:55:07.196Z,27.00
2023-02-11T10:57:45.009Z,26.10
2023-02-11T11:00:38.178Z,26.90
2023-02-11T11:03:20.909Z,27.00
2023-02-11T11:05:58.501Z,27.20
2023-02-11T11:08:43.720Z,23.90
2023-02-11T11:11:17.844Z,27.40
2023-02-11T11:14:00.119Z,26.50
2023-02-11T11:16:36.365Z,24.10
2023-02-11T11:19:26.067Z,26.90
2023-02-11T11:22:00.445Z,29.50
2023-02-11T11:24:41.715Z,27.40
2023-02-11T11:27:22.683Z,27.50
2023-02-11T11:29:57.362Z,29.20
2023-02-11T11:32:32.506Z,31.90
2023-02-11T11:35:09.698Z,29.10
2023-02-11T11:37:43.114Z,30.30
2023-02-11T11:40:26.173Z,28.80
2023-02-11T11:43:23.094Z,29.00
2023-02-11T11:46:02.937Z,29.00
2023-02-11T11:48:40.705Z,31.10
2023-02-11T11:51:14.750Z,28.30
2023-02-11T11:53:54.690Z,29.90
2023-02-11T11:56:30.132Z,28.90
2023-02-11T11:59:12.195Z,32.20
2023-02-11T12:02:02.068Z,31.80
2023-02-11T12:04:48.789Z,28.90
2023-02-11T12:07:35.017Z,28.70
2023-02-11T12:11:01.792Z,31.40
2023-02-11T12:13:49.347Z,27.50
2023-02-11T12:16:35.118Z,28.90
2023-02-11T12:19:32.847Z,28.10
2023-02-11T12:22:13.392Z,31.20
2023-02-11T12:25:02.454Z,27.90
2023-02-11T12:27:49.585Z,28.60
2023-02-11T12:30:46.305Z,30.40
2023-02-11T12:33:30.903Z,30.10
2023-02-11T12:36:08.785Z,28.00
2023-02-11T12:38:59.256Z,37.20
2023-02-11T12:42:08.812Z,30.20
2023-02-11T12:44:48.086Z,28.20
2023-02-11T12:47:30.859Z,30.50
2023-02-11T12:50:20.233Z,31.00
2023-02-11T12:53:18.824Z,30.40
2023-02-11T12:55:57.911Z,28.90
2023-02-11T12:58:44.415Z,29.60
2023-02-11T13:01:23.504Z,30.90
2023-02-11T13:04:01.008Z,34.50
2023-02-11T13:06:39.050Z,33.20
2023-02-11T13:09:18.898Z,32.90
2023-02-11T13:11:55.750Z,33.40
2023-02-11T13:14:32.503Z,33.00
2023-02-11T13:17:16.390Z,44.80
2023-02-11T13:19:53.168Z,35.90
2023-02-11T13:22:31.753Z,34.00
2023-02-11T13:25:17.979Z,37.50
2023-02-11T13:27:59.101Z,34.20
2023-02-11T13:30:35.297Z,32.40
2023-02-11T13:33:34.125Z,33.80
2023-02-11T13:36:27.077Z,33.10
2023-02-11T13:39:08.041Z,26.10
2023-02-11T13:41:43.676Z,41.30
2023-02-11T13:44:36.118Z,32.90
2023-02-11T13:47:23.775Z,34.00
2023-02-11T13:49:56.639Z,33.70
2023-02-11T13:52:33.143Z,32.80
2023-02-11T13:55:21.601Z,34.10
2023-02-11T13:58:21.324Z,34.40
2023-02-11T14:00:54.772Z,34.30
2023-02-11T14:04:20.609Z,32.80
2023-02-11T14:07:47.478Z,33.10
2023-02-11T14:10:51.163Z,33.50
2023-02-11T14:13:29.917Z,34.30
2023-02-11T14:16:11.488Z,35.50
2023-02-11T14:19:01.924Z,33.60
2023-02-11T14:21:45.522Z,37.40
2023-02-11T14:24:49.527Z,32.70
2023-02-11T14:27:41.432Z,37.10
2023-02-11T14:30:36.481Z,37.60
2023-02-11T14:33:45.834Z,37.60
2023-02-11T14:36:36.874Z,34.90
2023-02-11T14:39:20.404Z,34.90
2023-02-11T14:41:53.643Z,35.50
2023-02-11T14:44:29.190Z,34.20
2023-02-11T14:47:02.015Z,36.30
2023-02-11T14:49:37.847Z,40.30
2023-02-11T14:52:29.852Z,37.10
2023-02-11T14:55:17.752Z,36.10
2023-02-11T14:58:05.862Z,37.20
2023-02-11T15:00:48.109Z,32.40
2023-02-11T15:03:38.862Z,35.30
2023-02-11T15:08:56.547Z,34.30
2023-02-11T15:11:32.108Z,35.80
2023-02-11T15:14:12.825Z,37.00
2023-02-11T15:19:26.795Z,31.50
2023-02-11T15:22:00.593Z,34.90
2023-02-11T15:24:36.045Z,32.20
2023-02-11T15:27:18.596Z,33.90
2023-02-11T15:29:51.701Z,32.60
2023-02-11T15:32:26.305Z,35.80
2023-02-11T15:34:58.756Z,32.80
2023-02-11T15:37:32.423Z,31.20
2023-02-11T15:40:13.501Z,31.80
2023-02-11T15:42:58.513Z,25.40
2023-02-11T15:45:34.471Z,31.70
2023-02-11T15:48:14.417Z,34.80
2023-02-11T15:50:54.777Z,33.30
2023-02-11T15:53:34.099Z,30.30
2023-02-11T15:56:13.157Z,32.00
2023-02-11T15:58:48.679Z,30.80
2023-02-11T16:01:31.800Z,34.00
2023-02-11T16:04:07.425Z,33.80
2023-02-11T16:06:41.474Z,30.90
2023-02-11T16:09:32.929Z,34.40
2023-02-11T16:12:22.753Z,29.80
2023-02-11T16:14:56.697Z,31.00
2023-02-11T16:17:30.462Z,27.40
2023-02-11T16:20:05.944Z,33.60
2023-02-11T16:22:41.394Z,31.50
2023-02-11T16:25:25.529Z,29.00
2023-02-11T16:27:59.339Z,30.40
2023-02-11T16:30:39.894Z,29.50
2023-02-11T16:35:47.819Z,41.70
2023-02-11T16:38:21.519Z,36.40
2023-02-11T16:40:54.305Z,47.40
2023-02-11T16:43:26.854Z,45.20
2023-02-11T16:46:00.820Z,38.00
2023-02-11T16:48:36.351Z,37.00
2023-02-11T16:51:11.993Z,42.90
2023-02-11T16:53:44.730Z,39.20
2023-02-11T16:56:20.018Z,34.60
2023-02-11T16:58:55.595Z,35.50
2023-02-11T17:01:28.950Z,40.80
2023-02-11T17:04:02.255Z,39.10
2023-02-11T17:06:36.710Z,34.60
2023-02-11T17:09:17.389Z,37.70
2023-02-11T17:11:49.977Z,34.40
2023-02-11T17:14:23.061Z,35.40
2023-02-11T17:16:56.467Z,52.90
2023-02-11T17:19:29.214Z,35.20
2023-02-11T17:22:05.025Z,32.30
2023-02-11T17:24:40.592Z,32.80
2023-02-11T17:27:16.459Z,30.90
2023-02-11T17:29:49.091Z,34.10
2023-02-11T17:32:21.975Z,31.20
2023-02-11T17:34:56.099Z,34.70
2023-02-11T17:37:29.318Z,38.60
2023-02-11T17:40:05.123Z,31.20
2023-02-11T17:42:37.662Z,34.10
2023-02-11T17:45:13.260Z,32.30
2023-02-11T17:47:46.213Z,29.30
2023-02-11T17:50:19.421Z,34.30
2023-02-11T17:52:51.999Z,30.90
2023-02-11T17:55:25.715Z,34.00
2023-02-11T17:57:58.402Z,31.90
2023-02-11T18:00:31.348Z,36.10
2023-02-11T18:03:03.851Z,35.50
2023-02-11T18:05:41.335Z,31.80
2023-02-11T18:08:16.164Z,39.30
2023-02-11T18:10:48.845Z,36.00
2023-02-11T18:13:21.422Z,37.30
2023-02-11T18:15:54.689Z,33.00
2023-02-11T18:18:32.803Z,30.60
2023-02-11T18:21:08.630Z,33.40
2023-02-11T18:23:44.115Z,34.70
2023-02-11T18:26:25.838Z,29.20
2023-02-11T18:29:00.586Z,31.10
2023-02-11T18:31:36.772Z,36.40
2023-02-11T18:34:11.760Z,38.30
2023-02-11T18:36:44.605Z,34.70
2023-02-11T18:39:18.729Z,42.40
2023-02-11T18:41:54.622Z,34.60
2023-02-11T18:44:27.884Z,37.20
2023-02-11T18:47:01.619Z,39.90
2023-02-11T18:49:36.553Z,38.20
2023-02-11T18:52:09.454Z,33.20
2023-02-11T18:54:44.606Z,31.50
2023-02-11T18:57:20.413Z,30.30
2023-02-11T18:59:53.163Z,29.80
2023-02-11T19:02:26.374Z,27.90
2023-02-11T19:04:59.649Z,29.50
2023-02-11T19:07:34.734Z,31.40
2023-02-11T19:10:09.545Z,38.90
2023-02-11T19:12:42.058Z,37.70
2023-02-11T19:15:15.240Z,36.60
2023-02-11T19:17:47.979Z,29.70
2023-02-11T19:20:21.102Z,30.80
2023-02-11T19:22:53.725Z,34.40
2023-02-11T19:25:26.329Z,30.10
2023-02-11T19:27:58.795Z,35.50
2023-02-11T19:30:31.397Z,36.40
2023-02-11T19:33:03.775Z,30.10
2023-02-11T19:35:37.968Z,24.60
2023-02-11T19:38:10.448Z,27.20
2023-02-11T19:43:57.098Z,42.90
2023-02-11T19:46:31.578Z,37.40
2023-02-11T19:49:04.880Z,28.20
2023-02-11T19:51:39.306Z,34.90
2023-02-11T19:54:11.664Z,35.80
2023-02-11T19:56:44.879Z,39.50
2023-02-11T19:59:17.887Z,41.70
2023-02-11T20:01:50.569Z,41.00
2023-02-11T20:04:24.761Z,44.50
2023-02-11T20:06:56.963Z,39.30
2023-02-11T20:09:31.309Z,40.50
2023-02-11T20:12:04.011Z,37.60
2023-02-11T20:14:36.265Z,34.70
2023-02-11T20:17:08.630Z,29.60
2023-02-11T20:19:40.859Z,21.70
2023-02-11T20:22:13.730Z,22.50
2023-02-11T20:24:46.109Z,24.20
2023-02-11T20:27:20.025Z,22.70
2023-02-11T20:29:52.599Z,22.90
2023-02-11T20:32:24.865Z,26.40
2023-02-11T20:34:57.182Z,25.60
2023-02-11T20:37:29.354Z,26.70
2023-02-11T20:40:03.962Z,21.80
2023-02-11T20:42:36.159Z,20.60
2023-02-11T20:45:09.214Z,28.20
2023-02-11T20:47:42.559Z,25.30
2023-02-11T20:50:15.371Z,24.20
2023-02-11T20:52:48.528Z,29.20
2023-02-11T20:55:20.739Z,21.40
2023-02-11T20:57:55.000Z,17.10
2023-02-11T21:00:27.536Z,22.40
2023-02-11T21:03:00.269Z,19.70
2023-02-11T21:05:34.544Z,22.80
2023-02-11T21:08:07.001Z,26.10
2023-02-11T21:10:39.293Z,43.60
2023-02-11T21:13:11.493Z,35.90
2023-02-11T21:15:43.759Z,23.50
2023-02-11T21:18:16.040Z,21.90
2023-02-11T21:20:48.236Z,21.70
2023-02-11T21:23:20.527Z,22.70
2023-02-11T21:25:54.488Z,15.10
2023-02-11T21:28:27.557Z,14.30
2023-02-11T21:31:00.429Z,14.20
2023-02-11T21:33:34.789Z,13.40
2023-02-11T21:36:08.831Z,14.30
2023-02-11T21:38:41.612Z,13.70
2023-02-11T21:41:16.740Z,20.70
2023-02-11T21:43:49.169Z,14.40
2023-02-11T21:46:22.310Z,14.20
2023-02-11T21:48:54.573Z,15.50
2023-02-11T21:51:28.885Z,16.90
2023-02-11T21:54:02.969Z,23.80
2023-02-11T21:56:35.621Z,19.10
2023-02-11T21:59:08.008Z,15.00
2023-02-11T22:01:40.857Z,14.90
2023-02-11T22:04:14.189Z,14.20
2023-02-11T22:06:46.428Z,14.70
2023-02-11T22:09:18.763Z,14.40
2023-02-11T22:11:51.067Z,16.10
2023-02-11T22:14:23.516Z,15.50
2023-02-11T22:16:55.920Z,16.70
2023-02-11T22:19:28.830Z,16.90
2023-02-11T22:22:01.122Z,16.10
2023-02-11T22:24:33.501Z,13.30
2023-02-11T22:27:05.866Z,13.90
2023-02-11T22:29:38.572Z,14.90
2023-02-11T22:32:11.484Z,23.20
2023-02-11T22:34:43.993Z,15.60
2023-02-11T22:37:16.583Z,15.70
2023-02-11T22:39:49.247Z,15.30
2023-02-11T22:42:22.030Z,14.10
2023-02-11T22:44:58.111Z,13.70
2023-02-11T22:47:34.304Z,15.60
2023-02-11T22:53:17.461Z,14.20
2023-02-11T22:55:50.010Z,16.50
2023-02-11T22:58:26.976Z,16.20
2023-02-11T23:00:59.980Z,14.80
2023-02-11T23:03:38.662Z,18.60
2023-02-11T23:06:11.698Z,23.70
2023-02-11T23:08:45.091Z,17.30
2023-02-11T23:11:22.732Z,18.40
2023-02-11T23:13:56.176Z,20.50
2023-02-11T23:16:30.936Z,21.00
2023-02-11T23:19:05.160Z,23.50
2023-02-11T23:24:50.403Z,18.80
2023-02-11T23:27:22.687Z,21.00
2023-02-11T23:29:58.408Z,18.70
2023-02-11T23:32:30.737Z,18.80
2023-02-11T23:35:06.853Z,19.60
2023-02-11T23:37:39.384Z,20.20
2023-02-11T23:40:14.260Z,18.60
2023-02-11T23:42:47.795Z,20.80
2023-02-11T23:45:20.454Z,21.70
2023-02-11T23:47:53.412Z,22.50
2023-02-11T23:50:29.025Z,19.20
2023-02-11T23:53:01.706Z,18.80
2023-02-11T23:55:39.990Z,23.00
2023-02-11T23:58:13.143Z,27.80
